createdAt,value
2023-05-16T00:01:12.181Z,6.50
2023-05-16T00:04:14.186Z,9.80
2023-05-16T00:07:16.019Z,6.90
2023-05-16T00:10:17.830Z,10.40
2023-05-16T00:13:25.569Z,6.70
2023-05-16T00:16:29.439Z,9.10
2023-05-16T00:19:32.280Z,7.20
2023-05-16T00:22:33.956Z,7.00
2023-05-16T00:25:36.018Z,9.50
2023-05-16T00:28:37.716Z,9.30
2023-05-16T00:31:39.482Z,8.50
2023-05-16T00:34:41.225Z,6.60
2023-05-16T00:37:43.015Z,7.60
2023-05-16T00:40:44.866Z,7.50
2023-05-16T00:43:46.499Z,8.00
2023-05-16T00:46:48.311Z,8.50
2023-05-16T00:49:50.199Z,8.30
2023-05-16T00:52:52.049Z,8.50
2023-05-16T00:55:55.820Z,7.30
2023-05-16T00:58:58.008Z,11.30
2023-05-16T01:05:07.831Z,8.20
2023-05-16T01:08:09.676Z,9.40
2023-05-16T01:11:26.461Z,7.30
2023-05-16T01:14:51.710Z,7.20
2023-05-16T01:18:00.416Z,8.60
2023-05-16T01:21:12.128Z,7.20
2023-05-16T01:24:22.954Z,7.90
2023-05-16T01:27:27.008Z,8.70
2023-05-16T01:30:34.611Z,6.30
2023-05-16T01:33:36.561Z,8.80
2023-05-16T01:37:00.121Z,8.10
2023-05-16T01:40:10.723Z,7.80
2023-05-16T01:43:16.494Z,7.00
2023-05-16T01:46:26.447Z,8.20
2023-05-16T01:49:36.304Z,7.40
2023-05-16T01:52:42.021Z,6.80
2023-05-16T01:55:47.887Z,8.70
2023-05-16T01:58:51.994Z,10.40
2023-05-16T02:01:56.260Z,9.70
2023-05-16T02:04:58.050Z,11.70
2023-05-16T02:08:00.556Z,10.40
2023-05-16T02:11:02.451Z,10.90
2023-05-16T02:14:04.097Z,14.80
2023-05-16T02:17:06.148Z,13.10
2023-05-16T02:20:11.336Z,12.90
2023-05-16T02:23:13.073Z,14.20
2023-05-16T02:26:14.879Z,17.70
2023-05-16T02:29:16.618Z,14.90
2023-05-16T02:32:18.432Z,14.20
2023-05-16T02:35:20.239Z,11.40
2023-05-16T02:38:22.088Z,19.00
2023-05-16T02:41:24.299Z,13.10
2023-05-16T02:44:25.999Z,13.60
2023-05-16T02:47:27.770Z,15.20
2023-05-16T02:50:29.640Z,13.90
2023-05-16T02:53:31.286Z,14.40
2023-05-16T02:56:33.033Z,11.00
2023-05-16T02:59:35.669Z,11.80
2023-05-16T03:02:37.957Z,12.20
2023-05-16T03:05:42.093Z,12.30
2023-05-16T03:08:43.750Z,11.50
2023-05-16T03:11:46.005Z,11.50
2023-05-16T03:17:49.391Z,11.00
2023-05-16T03:20:52.334Z,12.70
2023-05-16T03:23:54.586Z,12.20
2023-05-16T03:26:56.876Z,13.60
2023-05-16T03:33:00.590Z,12.20
2023-05-16T03:36:02.443Z,17.70
2023-05-16T03:39:04.664Z,13.00
2023-05-16T03:45:09.082Z,12.20
2023-05-16T03:48:10.822Z,12.00
2023-05-16T03:51:12.604Z,15.20
2023-05-16T03:54:14.564Z,12.30
2023-05-16T03:57:16.530Z,10.00
2023-05-16T04:00:18.338Z,14.30
2023-05-16T04:03:27.515Z,14.30
2023-05-16T04:06:29.251Z,10.80
2023-05-16T04:09:30.887Z,10.70
2023-05-16T04:12:32.614Z,11.90
2023-05-16T04:15:34.352Z,10.40
2023-05-16T04:18:36.127Z,11.60
2023-05-16T04:21:37.828Z,13.90
2023-05-16T04:24:39.548Z,15.60
2023-05-16T04:27:41.580Z,18.80
2023-05-16T04:30:43.504Z,19.90
2023-05-16T04:33:45.416Z,14.90
2023-05-16T04:36:47.114Z,13.70
2023-05-16T04:39:48.753Z,12.00
2023-05-16T04:42:50.844Z,13.90
2023-05-16T04:45:53.479Z,12.20
2023-05-16T04:48:55.320Z,12.50
2023-05-16T04:51:57.162Z,9.70
2023-05-16T04:54:59.859Z,10.80
2023-05-16T04:58:01.605Z,12.10
2023-05-16T05:01:03.663Z,11.70
2023-05-16T05:04:05.330Z,12.60
2023-05-16T05:07:07.727Z,12.20
2023-05-16T05:10:10.312Z,16.10
2023-05-16T05:13:12.110Z,8.80
2023-05-16T05:16:13.879Z,10.10
2023-05-16T05:19:15.690Z,9.70
2023-05-16T05:22:17.506Z,13.50
2023-05-16T05:25:19.293Z,8.50
2023-05-16T05:28:20.956Z,7.30
2023-05-16T05:31:22.915Z,9.20
2023-05-16T05:34:24.613Z,10.90
2023-05-16T05:37:26.686Z,10.80
2023-05-16T05:40:28.459Z,8.30
2023-05-16T05:43:30.290Z,12.50
2023-05-16T05:46:33.302Z,11.90
2023-05-16T05:49:35.514Z,13.70
2023-05-16T05:52:37.930Z,8.00
2023-05-16T05:55:41.598Z,12.10
2023-05-16T05:58:43.386Z,9.40
2023-05-16T06:01:45.124Z,10.40
2023-05-16T06:04:46.941Z,10.30
2023-05-16T06:07:48.784Z,12.70
2023-05-16T06:10:50.573Z,10.40
2023-05-16T06:13:52.482Z,10.00
2023-05-16T06:16:54.463Z,11.00
2023-05-16T06:19:56.174Z,13.30
2023-05-16T06:22:57.881Z,6.60
2023-05-16T06:25:59.684Z,7.80
2023-05-16T06:29:01.385Z,7.90
2023-05-16T06:32:03.199Z,7.50
2023-05-16T06:35:05.327Z,9.50
2023-05-16T06:38:07.018Z,8.60
2023-05-16T06:41:08.707Z,6.70
2023-05-16T06:44:11.011Z,8.20
2023-05-16T06:47:12.822Z,8.50
2023-05-16T06:50:15.042Z,7.00
2023-05-16T06:53:17.507Z,7.60
2023-05-16T06:56:19.524Z,9.20
2023-05-16T06:59:21.542Z,7.30
2023-05-16T07:02:23.694Z,7.20
2023-05-16T07:05:25.811Z,7.40
2023-05-16T07:08:27.560Z,19.30
2023-05-16T07:11:29.517Z,7.40
2023-05-16T07:14:31.388Z,7.50
2023-05-16T07:24:39.281Z,12.60
2023-05-16T07:27:45.095Z,6.80
2023-05-16T07:30:48.803Z,5.50
2023-05-16T07:33:53.929Z,6.80
2023-05-16T07:36:57.550Z,8.60
2023-05-16T07:40:01.100Z,6.10
2023-05-16T07:43:04.251Z,8.30
2023-05-16T07:46:07.370Z,7.20
2023-05-16T07:49:11.052Z,6.90
2023-05-16T07:52:14.179Z,5.80
2023-05-16T07:55:17.363Z,7.30
2023-05-16T07:58:20.507Z,4.20
2023-05-16T08:01:23.798Z,5.10
2023-05-16T08:04:26.907Z,6.80
2023-05-16T08:07:30.168Z,5.50
2023-05-16T08:10:33.390Z,4.10
2023-05-16T08:13:36.965Z,6.20
2023-05-16T08:16:41.166Z,6.90
2023-05-16T08:19:44.240Z,7.00
2023-05-16T08:22:47.269Z,4.20
2023-05-16T08:25:50.384Z,5.10
2023-05-16T08:28:53.549Z,6.10
2023-05-16T08:31:56.989Z,5.80
2023-05-16T08:35:00.513Z,4.50
2023-05-16T08:38:03.772Z,8.30
2023-05-16T08:41:06.931Z,5.80
2023-05-16T08:44:12.949Z,5.20
2023-05-16T08:47:21.835Z,9.10
2023-05-16T08:50:25.874Z,8.90
2023-05-16T08:53:37.327Z,7.70
2023-05-16T08:56:42.496Z,5.40
2023-05-16T08:59:45.722Z,6.80
2023-05-16T09:02:50.251Z,4.00
2023-05-16T09:05:53.388Z,10.80
2023-05-16T09:08:56.753Z,9.10
2023-05-16T09:12:00.097Z,6.80
2023-05-16T09:15:05.081Z,7.70
2023-05-16T09:18:14.049Z,6.70
2023-05-16T09:21:17.386Z,10.30
2023-05-16T09:24:26.417Z,7.50
2023-05-16T09:27:31.782Z,5.40
2023-05-16T09:30:35.436Z,6.40
2023-05-16T09:33:41.937Z,5.30
2023-05-16T09:36:45.138Z,6.70
2023-05-16T09:39:52.998Z,4.70
2023-05-16T09:43:04.619Z,6.00
2023-05-16T09:46:08.497Z,7.10
2023-05-16T09:49:14.552Z,5.30
2023-05-16T09:52:18.770Z,3.20
2023-05-16T09:55:23.251Z,4.30
2023-05-16T09:58:35.226Z,7.60
2023-05-16T10:01:38.804Z,3.60
2023-05-16T10:04:42.555Z,4.80
2023-05-16T10:07:46.158Z,4.10
2023-05-16T10:10:54.128Z,4.30
2023-05-16T10:13:57.330Z,5.90
2023-05-16T10:17:01.545Z,5.20
2023-05-16T10:20:08.148Z,6.60
2023-05-16T10:23:19.326Z,6.70
2023-05-16T10:26:23.901Z,5.10
2023-05-16T10:29:28.795Z,3.90
2023-05-16T10:32:32.597Z,5.80
2023-05-16T10:35:37.256Z,4.60
2023-05-16T10:38:41.549Z,6.20
2023-05-16T10:41:45.089Z,4.90
2023-05-16T10:44:58.496Z,6.00
2023-05-16T10:48:10.029Z,6.50
2023-05-16T10:51:22.037Z,6.00
2023-05-16T10:54:35.504Z,4.80
2023-05-16T10:57:42.599Z,3.50
2023-05-16T11:00:51.131Z,4.30
2023-05-16T11:03:57.347Z,4.60
2023-05-16T11:07:01.853Z,5.40
2023-05-16T11:10:17.279Z,5.60
2023-05-16T11:13:24.808Z,4.20
2023-05-16T11:16:29.355Z,7.10
2023-05-16T11:19:45.194Z,5.00
2023-05-16T11:22:48.318Z,7.30
2023-05-16T11:26:00.769Z,11.00
2023-05-16T11:29:04.771Z,7.00
2023-05-16T11:32:10.619Z,8.20
2023-05-16T11:35:18.049Z,5.40
2023-05-16T11:38:21.272Z,8.50
2023-05-16T11:41:24.546Z,4.60
2023-05-16T11:44:28.043Z,7.80
2023-05-16T11:47:32.154Z,6.90
2023-05-16T11:50:36.320Z,4.70
2023-05-16T11:53:39.901Z,6.20
2023-05-16T11:56:43.235Z,5.60
2023-05-16T11:59:46.499Z,8.20
2023-05-16T12:02:50.307Z,4.00
2023-05-16T12:05:57.317Z,4.50
2023-05-16T12:09:03.925Z,4.90
2023-05-16T12:12:07.749Z,4.10
2023-05-16T12:15:12.130Z,7.60
2023-05-16T12:18:16.776Z,5.00
2023-05-16T12:21:21.640Z,4.20
2023-05-16T12:24:30.969Z,6.20
2023-05-16T12:27:34.093Z,5.50
2023-05-16T12:30:42.727Z,6.90
2023-05-16T12:33:46.732Z,5.40
2023-05-16T12:36:53.989Z,7.00
2023-05-16T12:40:01.060Z,5.90
2023-05-16T12:43:04.605Z,5.50
2023-05-16T12:46:12.185Z,5.00
2023-05-16T12:49:15.598Z,12.80
2023-05-16T12:52:23.118Z,5.90
2023-05-16T12:55:27.056Z,4.70
2023-05-16T12:58:30.808Z,8.10
2023-05-16T13:01:35.699Z,6.80
2023-05-16T13:04:38.890Z,3.60
2023-05-16T13:07:42.098Z,5.30
2023-05-16T13:10:45.195Z,7.60
2023-05-16T13:13:48.320Z,9.20
2023-05-16T13:16:51.599Z,3.80
2023-05-16T13:19:54.717Z,5.10
2023-05-16T13:22:57.843Z,4.90
2023-05-16T13:26:03.649Z,6.70
2023-05-16T13:29:07.507Z,10.90
2023-05-16T13:32:10.841Z,7.00
2023-05-16T13:35:14.456Z,4.50
2023-05-16T13:38:17.588Z,3.90
2023-05-16T13:41:20.942Z,9.50
2023-05-16T13:44:24.059Z,5.50
2023-05-16T13:47:27.502Z,5.00
2023-05-16T13:50:33.950Z,4.90
2023-05-16T13:53:41.979Z,5.10
2023-05-16T13:56:45.713Z,5.50
2023-05-16T14:00:17.673Z,3.80
2023-05-16T14:03:14.783Z,6.00
2023-05-16T14:06:18.192Z,4.30
2023-05-16T14:09:21.270Z,7.20
2023-05-16T14:12:24.516Z,11.40
2023-05-16T14:15:27.991Z,6.10
2023-05-16T14:18:31.418Z,12.40
2023-05-16T14:21:34.597Z,10.60
2023-05-16T14:24:37.841Z,11.10
2023-05-16T14:27:41.484Z,7.60
2023-05-16T14:30:45.988Z,4.10
2023-05-16T14:33:51.489Z,4.60
2023-05-16T14:36:54.772Z,6.80
2023-05-16T14:39:58.002Z,4.10
2023-05-16T14:43:04.158Z,4.20
2023-05-16T14:46:07.480Z,7.00
2023-05-16T14:49:11.144Z,4.80
2023-05-16T14:52:14.272Z,8.50
2023-05-16T14:55:17.322Z,5.10
2023-05-16T14:58:20.303Z,4.70
2023-05-16T15:01:23.462Z,5.30
2023-05-16T15:04:28.394Z,4.80
2023-05-16T15:07:31.431Z,8.60
2023-05-16T15:10:34.596Z,4.40
2023-05-16T15:13:37.870Z,5.60
2023-05-16T15:16:41.005Z,4.50
2023-05-16T15:19:44.130Z,5.40
2023-05-16T15:22:47.919Z,5.10
2023-05-16T15:25:52.324Z,6.80
2023-05-16T15:28:55.766Z,7.90
2023-05-16T15:31:58.850Z,10.50
2023-05-16T15:35:01.976Z,10.90
2023-05-16T15:38:05.079Z,10.10
2023-05-16T15:41:24.038Z,10.80
2023-05-16T15:44:33.130Z,8.50
2023-05-16T15:47:39.283Z,8.80
2023-05-16T15:50:45.668Z,9.20
2023-05-16T15:53:56.147Z,7.70
2023-05-16T15:56:59.423Z,8.70
2023-05-16T16:00:02.549Z,10.20
2023-05-16T16:03:17.182Z,9.20
2023-05-16T16:06:21.726Z,7.50
2023-05-16T16:09:26.497Z,9.40
2023-05-16T16:12:31.321Z,8.80
2023-05-16T16:15:38.486Z,9.00
2023-05-16T16:18:46.164Z,10.50
2023-05-16T16:21:56.111Z,10.90
2023-05-16T16:25:00.617Z,10.60
2023-05-16T16:28:07.122Z,12.00
2023-05-16T16:31:11.008Z,10.20
2023-05-16T16:34:14.490Z,12.20
2023-05-16T16:37:17.611Z,10.80
2023-05-16T16:40:20.889Z,10.00
2023-05-16T16:43:23.871Z,9.20
2023-05-16T16:46:27.041Z,9.80
2023-05-16T16:49:31.421Z,11.20
2023-05-16T16:52:39.052Z,9.80
2023-05-16T16:55:45.839Z,11.50
2023-05-16T16:58:49.341Z,14.20
2023-05-16T17:01:52.530Z,11.10
2023-05-16T17:04:55.890Z,14.00
2023-05-16T17:07:58.989Z,18.90
2023-05-16T17:11:05.162Z,22.10
2023-05-16T17:14:10.744Z,23.40
2023-05-16T17:17:15.340Z,22.00
2023-05-16T17:20:18.548Z,26.40
2023-05-16T17:23:22.060Z,22.30
2023-05-16T17:26:25.118Z,20.10
2023-05-16T17:29:28.359Z,19.30
2023-05-16T17:32:31.781Z,19.80
2023-05-16T17:35:35.905Z,17.10
2023-05-16T17:38:38.982Z,22.00
2023-05-16T17:41:42.414Z,22.10
2023-05-16T17:44:45.770Z,21.50
2023-05-16T17:47:49.151Z,18.80
2023-05-16T17:50:52.181Z,22.20
2023-05-16T17:53:55.309Z,18.00
2023-05-16T17:57:00.601Z,14.70
2023-05-16T18:00:06.109Z,13.10
2023-05-16T18:03:09.529Z,13.10
2023-05-16T18:06:12.668Z,14.70
2023-05-16T18:09:15.684Z,14.30
2023-05-16T18:12:18.896Z,13.20
2023-05-16T18:15:22.504Z,10.30
2023-05-16T18:18:26.805Z,12.60
2023-05-16T18:21:30.419Z,12.20
2023-05-16T18:24:34.609Z,11.10
2023-05-16T18:27:38.121Z,10.60
2023-05-16T18:30:41.410Z,10.60
2023-05-16T18:33:44.791Z,11.60
2023-05-16T18:36:48.967Z,11.30
2023-05-16T18:39:52.536Z,12.90
2023-05-16T18:42:56.695Z,9.80
2023-05-16T18:46:01.850Z,11.20
2023-05-16T18:49:05.388Z,10.60
2023-05-16T18:52:09.596Z,11.30
2023-05-16T18:55:14.794Z,18.30
2023-05-16T18:58:19.007Z,26.80
2023-05-16T19:01:22.522Z,20.90
2023-05-16T19:04:26.049Z,23.00
2023-05-16T19:07:29.602Z,13.50
2023-05-16T19:10:38.103Z,11.50
2023-05-16T19:13:41.489Z,12.40
2023-05-16T19:16:44.636Z,12.90
2023-05-16T19:19:47.778Z,10.80
2023-05-16T19:22:51.650Z,13.00
2023-05-16T19:25:54.893Z,10.70
2023-05-16T19:28:58.118Z,12.30
2023-05-16T19:32:01.400Z,13.20
2023-05-16T19:35:05.398Z,11.20
2023-05-16T19:38:08.656Z,15.30
2023-05-16T19:41:11.735Z,12.50
2023-05-16T19:44:14.866Z,12.90
2023-05-16T19:47:18.164Z,13.70
2023-05-16T19:50:21.762Z,9.60
2023-05-16T19:53:24.810Z,9.60
2023-05-16T19:56:28.340Z,10.10
2023-05-16T19:59:34.274Z,10.40
2023-05-16T20:02:37.375Z,7.10
2023-05-16T20:05:40.482Z,7.90
2023-05-16T20:08:43.554Z,11.80
2023-05-16T20:11:46.803Z,9.80
2023-05-16T20:14:49.795Z,12.20
2023-05-16T20:17:52.885Z,10.50
2023-05-16T20:20:57.445Z,11.40
2023-05-16T20:24:01.828Z,10.20
2023-05-16T20:27:05.148Z,9.30
2023-05-16T20:30:08.736Z,9.50
2023-05-16T20:33:11.968Z,8.70
2023-05-16T20:36:15.087Z,11.50
2023-05-16T20:39:18.148Z,8.90
2023-05-16T20:42:21.895Z,9.80
2023-05-16T20:45:27.205Z,8.00
2023-05-16T20:48:30.552Z,14.30
2023-05-16T20:51:33.698Z,10.20
2023-05-16T20:54:36.796Z,10.80
2023-05-16T20:57:41.703Z,11.60
2023-05-16T21:00:46.074Z,11.00
2023-05-16T21:03:49.203Z,11.60
2023-05-16T21:06:52.339Z,11.70
2023-05-16T21:09:55.474Z,10.30
2023-05-16T21:12:58.535Z,12.90
2023-05-16T21:16:01.685Z,12.10
2023-05-16T21:19:04.932Z,14.40
2023-05-16T21:22:08.236Z,14.00
2023-05-16T21:25:11.364Z,19.00
2023-05-16T21:28:14.424Z,13.20
2023-05-16T21:31:17.530Z,14.00
2023-05-16T21:34:20.509Z,13.30
2023-05-16T21:37:23.619Z,14.00
2023-05-16T21:40:28.769Z,14.60
2023-05-16T21:43:31.780Z,11.60
2023-05-16T21:46:34.845Z,10.70
2023-05-16T21:49:37.839Z,12.20
2023-05-16T21:52:41.294Z,10.00
2023-05-16T21:55:44.432Z,11.00
2023-05-16T21:58:47.500Z,7.50
2023-05-16T22:01:50.531Z,9.00
2023-05-16T22:04:53.581Z,12.10
2023-05-16T22:07:56.646Z,10.00
2023-05-16T22:10:59.974Z,6.20
2023-05-16T22:14:03.152Z,12.20
2023-05-16T22:17:06.297Z,8.50
2023-05-16T22:20:09.769Z,8.50
2023-05-16T22:23:12.831Z,6.90
2023-05-16T22:26:15.810Z,12.60
2023-05-16T22:29:18.893Z,11.00
2023-05-16T22:32:22.374Z,7.10
2023-05-16T22:35:27.329Z,7.10
2023-05-16T22:38:31.803Z,5.50
2023-05-16T22:41:35.012Z,4.80
2023-05-16T22:44:38.352Z,4.80
2023-05-16T22:47:41.563Z,5.40
2023-05-16T22:50:44.621Z,5.20
2023-05-16T22:53:47.793Z,5.90
2023-05-16T22:56:51.631Z,4.10
2023-05-16T22:59:55.950Z,6.50
2023-05-16T23:02:59.139Z,4.80
2023-05-16T23:06:02.255Z,6.70
2023-05-16T23:09:05.360Z,6.90
2023-05-16T23:12:08.812Z,5.40
2023-05-16T23:15:11.905Z,5.90
2023-05-16T23:18:15.044Z,6.20
2023-05-16T23:21:18.091Z,6.70
2023-05-16T23:24:21.253Z,8.00
2023-05-16T23:27:24.299Z,7.40
2023-05-16T23:30:27.327Z,7.40
2023-05-16T23:33:30.654Z,5.90
2023-05-16T23:36:33.787Z,6.90
2023-05-16T23:39:36.929Z,7.20
2023-05-16T23:42:42.705Z,6.30
2023-05-16T23:45:45.901Z,5.20
2023-05-16T23:48:49.020Z,5.10
2023-05-16T23:51:57.903Z,5.50
2023-05-16T23:55:01.887Z,4.70
2023-05-16T23:58:04.952Z,4.00
